Time;durP1;ratioP1;P1;durP2;ratioP2;P2;SDS_P1;SDS_P2;PMS_P1;PMS_P2;Temp;Humidity;BMP_temperature;BMP_pressure;BME280_temperature;BME280_humidity;BME280_pressure;Samples;Min_cycle;Max_cycle;Signal;HPM_P1;HPM_P2
2024/04/01 00:01:37;;;;;;;20.98;15.50;;;11.30;99.90;;;;;;5014479;28;20481;-80
2024/04/01 00:04:02;;;;;;;25.98;15.68;;;11.30;99.90;;;;;;5014124;28;20121;-80
2024/04/01 00:06:28;;;;;;;20.13;13.87;;;11.30;99.90;;;;;;5014361;28;20496;-80
2024/04/01 00:08:53;;;;;;;22.95;15.25;;;11.30;99.90;;;;;;5014140;28;20058;-80
2024/04/01 00:11:19;;;;;;;26.77;14.73;;;11.20;99.90;;;;;;5013835;28;20097;-80
2024/04/01 00:13:46;;;;;;;20.92;14.75;;;11.20;99.90;;;;;;5012584;28;20026;-81
2024/04/01 00:16:12;;;;;;;23.30;15.88;;;11.20;99.90;;;;;;5013781;28;20022;-81
2024/04/01 00:18:37;;;;;;;20.80;14.82;;;11.20;99.90;;;;;;5013594;28;20105;-80
2024/04/01 00:21:03;;;;;;;21.70;14.43;;;11.10;99.90;;;;;;5014168;28;20033;-81
2024/04/01 00:23:28;;;;;;;23.70;14.73;;;11.10;99.90;;;;;;5029199;28;20025;-81
2024/04/01 00:25:54;;;;;;;24.63;14.38;;;11.00;99.90;;;;;;5013439;28;20100;-81
2024/04/01 00:28:20;;;;;;;20.17;14.45;;;11.00;99.90;;;;;;5013737;28;20026;-81
2024/04/01 00:30:45;;;;;;;17.52;12.20;;;11.00;99.90;;;;;;5028716;28;20105;-81
2024/04/01 00:33:11;;;;;;;22.50;13.48;;;11.00;99.90;;;;;;5013537;28;20072;-80
2024/04/01 00:35:40;;;;;;;21.17;12.87;;;11.00;99.90;;;;;;5012329;28;20018;-80
2024/04/01 00:38:06;;;;;;;21.75;12.77;;;10.90;99.90;;;;;;5013630;28;20018;-81
2024/04/01 00:40:34;;;;;;;18.02;12.80;;;10.90;99.90;;;;;;5013731;28;20034;-81
2024/04/01 00:43:18;;;;;;;20.88;12.55;;;10.90;99.90;;;;;;5013601;28;20026;-81
2024/04/01 00:45:46;;;;;;;13.50;9.25;;;10.90;99.90;;;;;;5028522;28;20029;-80
2024/04/01 00:48:13;;;;;;;19.65;11.40;;;10.80;99.90;;;;;;5013162;28;20512;-80
2024/04/01 00:50:42;;;;;;;17.98;12.23;;;10.80;99.90;;;;;;5013474;28;20072;-80
2024/04/01 00:53:10;;;;;;;18.83;11.90;;;10.80;99.90;;;;;;5028681;28;20022;-80
2024/04/01 00:55:39;;;;;;;19.27;11.93;;;10.80;99.90;;;;;;5013313;28;20022;-80
2024/04/01 00:58:04;;;;;;;17.15;11.02;;;10.80;99.90;;;;;;5013504;28;20046;-80
2024/04/01 01:00:31;;;;;;;16.50;11.57;;;10.80;99.90;;;;;;5013406;28;20054;-80
2024/04/01 01:02:59;;;;;;;15.57;11.20;;;10.80;99.90;;;;;;5013411;28;20367;-80
2024/04/01 01:05:25;;;;;;;17.90;11.57;;;10.70;99.90;;;;;;5013186;28;20034;-80
2024/04/01 01:07:51;;;;;;;20.67;11.47;;;10.70;99.90;;;;;;5013172;28;20117;-80
2024/04/01 01:10:17;;;;;;;21.90;11.07;;;10.70;99.90;;;;;;5013273;28;20069;-81
2024/04/01 01:12:43;;;;;;;15.63;10.60;;;10.60;99.90;;;;;;5013355;28;20041;-80
2024/04/01 01:15:11;;;;;;;14.77;10.97;;;10.60;99.90;;;;;;5013238;28;20030;-80
2024/04/01 01:17:38;;;;;;;15.43;11.33;;;10.60;99.90;;;;;;5028513;28;20029;-80
2024/04/01 01:20:11;;;;;;;20.17;10.80;;;10.60;99.90;;;;;;5012869;28;20037;-81
2024/04/01 01:22:41;;;;;;;19.48;10.55;;;10.60;99.90;;;;;;5013015;28;20014;-80
2024/04/01 01:25:07;;;;;;;18.77;12.30;;;10.60;99.90;;;;;;5012759;28;20033;-80
2024/04/01 01:27:36;;;;;;;17.67;11.63;;;10.60;99.90;;;;;;5014051;28;20076;-79
2024/04/01 01:30:15;;;;;;;17.67;11.68;;;10.60;99.90;;;;;;5017357;28;20026;-80
2024/04/01 01:32:47;;;;;;;26.70;11.83;;;10.60;99.90;;;;;;5016642;28;20038;-80
2024/04/01 01:35:14;;;;;;;16.50;10.97;;;10.60;99.90;;;;;;5032548;28;20030;-80
2024/04/01 01:37:40;;;;;;;16.93;11.70;;;10.50;99.90;;;;;;5017149;28;20026;-80
2024/04/01 01:40:08;;;;;;;16.63;11.60;;;10.60;99.90;;;;;;5032106;28;20117;-80
2024/04/01 01:42:37;;;;;;;17.30;11.90;;;10.60;99.90;;;;;;5016742;28;20018;-79
2024/04/01 01:45:04;;;;;;;19.03;12.17;;;10.50;99.90;;;;;;5032083;28;20561;-80
2024/04/01 01:47:34;;;;;;;16.65;11.57;;;10.50;99.90;;;;;;5017017;28;20022;-80
2024/04/01 01:50:00;;;;;;;16.55;9.98;;;10.50;99.90;;;;;;5032070;28;20049;-80
2024/04/01 01:52:26;;;;;;;15.80;9.60;;;10.50;99.90;;;;;;5016864;28;20512;-80
2024/04/01 01:54:52;;;;;;;15.77;9.07;;;10.50;99.90;;;;;;5031822;28;20076;-80
2024/04/01 01:57:18;;;;;;;14.43;8.43;;;10.50;99.90;;;;;;5031854;28;20026;-80
2024/04/01 01:59:43;;;;;;;13.63;7.63;;;10.50;99.90;;;;;;5031920;28;20034;-80
2024/04/01 02:02:14;;;;;;;11.45;6.30;;;10.50;99.90;;;;;;5031886;28;20061;-80
2024/04/01 02:04:39;;;;;;;14.85;6.75;;;10.50;99.90;;;;;;5016482;28;20071;-80
2024/04/01 02:07:06;;;;;;;11.57;6.45;;;10.50;99.90;;;;;;5016659;28;20108;-80
2024/04/01 02:09:32;;;;;;;15.13;6.50;;;10.50;99.90;;;;;;5016244;28;20021;-80
2024/04/01 02:11:59;;;;;;;11.87;5.83;;;10.50;99.90;;;;;;5016398;28;20022;-80
2024/04/01 02:14:24;;;;;;;12.18;5.93;;;10.50;99.90;;;;;;5016666;28;20026;-80
2024/04/01 02:16:50;;;;;;;12.00;6.55;;;10.50;99.90;;;;;;5016489;28;20033;-80
2024/04/01 02:19:16;;;;;;;13.33;6.20;;;10.50;99.90;;;;;;5016016;28;20033;-79
2024/04/01 02:21:44;;;;;;;10.00;5.35;;;10.50;99.90;;;;;;5016264;28;20033;-81
2024/04/01 02:24:22;;;;;;;11.80;5.60;;;10.50;99.90;;;;;;5031601;28;20061;-80
2024/04/01 02:26:48;;;;;;;10.13;5.82;;;10.50;99.90;;;;;;5016085;28;20030;-80
2024/04/01 02:29:15;;;;;;;10.90;5.73;;;10.50;99.90;;;;;;5031098;28;20084;-80
2024/04/01 02:31:41;;;;;;;10.70;6.00;;;10.50;99.90;;;;;;5015263;28;20022;-80
2024/04/01 02:34:07;;;;;;;11.13;5.53;;;10.40;99.90;;;;;;5016045;28;20018;-80
2024/04/01 02:36:34;;;;;;;11.07;4.70;;;10.40;99.90;;;;;;5031176;28;20018;-80
2024/04/01 02:38:59;;;;;;;11.60;5.43;;;10.40;99.90;;;;;;5016076;28;20458;-80
2024/04/01 02:41:25;;;;;;;12.30;5.17;;;10.40;99.90;;;;;;5014709;28;20033;-80
2024/04/01 02:43:50;;;;;;;9.43;4.70;;;10.40;99.90;;;;;;5015842;28;20104;-81
2024/04/01 02:46:16;;;;;;;9.02;4.82;;;10.40;99.90;;;;;;5015988;28;20030;-81
2024/04/01 02:48:42;;;;;;;7.60;5.03;;;10.50;99.90;;;;;;5015711;28;20042;-81
2024/04/01 02:51:07;;;;;;;9.03;4.80;;;10.40;99.90;;;;;;5030443;28;20033;-81
2024/04/01 02:53:33;;;;;;;8.43;4.40;;;10.40;99.90;;;;;;5015830;28;20030;-81
2024/04/01 02:55:59;;;;;;;8.63;4.50;;;10.40;99.90;;;;;;5015652;28;20044;-80
2024/04/01 02:58:25;;;;;;;8.60;4.77;;;10.30;99.90;;;;;;5031717;28;20037;-81
2024/04/01 03:00:51;;;;;;;10.47;4.80;;;10.40;99.90;;;;;;5016241;28;20113;-81
2024/04/01 03:03:16;;;;;;;7.53;4.43;;;10.30;99.90;;;;;;5015754;28;20153;-80
2024/04/01 03:05:42;;;;;;;8.63;4.20;;;10.30;99.90;;;;;;5030294;28;20059;-80
2024/04/01 03:08:08;;;;;;;8.73;4.80;;;10.30;99.90;;;;;;5015579;28;20029;-81
2024/04/01 03:10:37;;;;;;;11.82;4.45;;;10.30;99.90;;;;;;5015458;28;20025;-81
2024/04/01 03:13:06;;;;;;;9.32;3.90;;;10.30;99.90;;;;;;5015350;28;20026;-81
2024/04/01 03:15:33;;;;;;;10.65;4.72;;;10.20;99.90;;;;;;5015431;28;20562;-81
2024/04/01 03:17:59;;;;;;;9.40;4.60;;;10.30;99.90;;;;;;5014896;28;20105;-80
2024/04/01 03:20:25;;;;;;;7.27;4.27;;;10.20;99.90;;;;;;5014987;28;20105;-81
2024/04/01 03:22:51;;;;;;;7.60;4.27;;;10.30;99.90;;;;;;5015096;28;20046;-80
2024/04/01 03:25:17;;;;;;;10.13;4.73;;;10.20;99.90;;;;;;5014980;28;20030;-80
2024/04/01 03:27:42;;;;;;;7.37;4.50;;;10.20;99.90;;;;;;5030207;28;20017;-80
2024/04/01 03:30:09;;;;;;;7.33;4.97;;;10.30;99.90;;;;;;5014906;28;20049;-80
2024/04/01 03:32:35;;;;;;;7.37;4.87;;;10.20;99.90;;;;;;5029812;28;20030;-80
2024/04/01 03:35:02;;;;;;;10.57;4.63;;;10.20;99.90;;;;;;5014798;28;20408;-80
2024/04/01 03:37:28;;;;;;;7.47;4.53;;;10.10;99.90;;;;;;5030096;28;20543;-81
2024/04/01 03:39:53;;;;;;;10.33;5.20;;;10.10;99.90;;;;;;5014840;28;20034;-80
2024/04/01 03:42:19;;;;;;;9.17;4.50;;;10.10;99.90;;;;;;5029566;28;20053;-79
2024/04/01 03:44:45;;;;;;;10.13;5.27;;;10.10;99.90;;;;;;5014603;28;20163;-79
2024/04/01 03:47:10;;;;;;;8.80;4.77;;;10.10;99.90;;;;;;5014524;28;20105;-80
2024/04/01 03:49:38;;;;;;;7.83;3.93;;;10.10;99.90;;;;;;5014301;28;20057;-80
2024/04/01 03:52:05;;;;;;;7.33;4.50;;;10.10;99.90;;;;;;5014504;28;20058;-80
2024/04/01 03:54:31;;;;;;;6.32;4.20;;;10.10;99.90;;;;;;5014962;28;20077;-80
2024/04/01 03:56:56;;;;;;;7.93;5.07;;;10.00;99.90;;;;;;5014888;28;20030;-80
2024/04/01 03:59:22;;;;;;;7.90;4.37;;;10.00;99.90;;;;;;5014565;28;20026;-80
2024/04/01 04:01:48;;;;;;;10.60;5.10;;;10.00;99.90;;;;;;5015109;28;20030;-79
2024/04/01 04:04:14;;;;;;;9.73;4.93;;;10.00;99.90;;;;;;5016499;28;20048;-79
2024/04/01 04:06:40;;;;;;;9.07;5.40;;;10.00;99.90;;;;;;5032478;28;20017;-79
2024/04/01 04:09:15;;;;;;;8.30;4.73;;;10.00;99.90;;;;;;5033641;28;20029;-79
2024/04/01 04:11:42;;;;;;;8.13;4.60;;;10.00;99.90;;;;;;5033426;28;20029;-80
2024/04/01 04:14:08;;;;;;;8.43;5.00;;;9.90;99.90;;;;;;5033758;28;20023;-79
2024/04/01 04:16:34;;;;;;;9.67;5.23;;;9.90;99.90;;;;;;5033715;28;20030;-80
2024/04/01 04:18:59;;;;;;;9.97;5.23;;;9.90;99.90;;;;;;5033612;28;20072;-79
2024/04/01 04:21:25;;;;;;;12.67;5.90;;;9.90;99.90;;;;;;5033861;28;20033;-81
2024/04/01 04:23:50;;;;;;;10.30;6.27;;;9.90;99.90;;;;;;5033907;28;20100;-81
2024/04/01 04:26:16;;;;;;;10.17;5.57;;;9.90;99.90;;;;;;5034376;28;20546;-80
2024/04/01 04:28:42;;;;;;;8.63;5.33;;;9.90;99.90;;;;;;5034952;28;20069;-81
2024/04/01 04:31:08;;;;;;;10.87;5.70;;;9.90;99.90;;;;;;5033240;28;20102;-81
2024/04/01 04:33:34;;;;;;;8.67;5.17;;;9.90;99.90;;;;;;5033563;28;20064;-80
2024/04/01 04:36:00;;;;;;;9.63;5.17;;;9.90;99.90;;;;;;5033645;28;20116;-80
2024/04/01 04:38:25;;;;;;;11.23;6.07;;;10.00;99.90;;;;;;5033756;28;20029;-81
2024/04/01 04:40:51;;;;;;;10.13;5.10;;;10.00;99.90;;;;;;5033820;28;20036;-81
2024/04/01 04:43:16;;;;;;;8.20;5.10;;;9.90;99.90;;;;;;5032063;28;20017;-81
2024/04/01 04:45:48;;;;;;;10.53;4.93;;;10.00;99.90;;;;;;5033112;28;20032;-80
2024/04/01 04:48:17;;;;;;;11.20;5.93;;;9.90;99.90;;;;;;5031566;28;20041;-80
2024/04/01 04:50:42;;;;;;;9.33;5.00;;;10.00;99.90;;;;;;5033232;28;20029;-80
2024/04/01 04:53:08;;;;;;;9.63;5.27;;;10.00;99.90;;;;;;5033217;28;20040;-81
2024/04/01 04:55:34;;;;;;;11.73;4.90;;;10.10;99.90;;;;;;5032278;28;20064;-81
2024/04/01 04:57:59;;;;;;;10.70;4.63;;;10.00;99.90;;;;;;5033411;28;20064;-80
2024/04/01 05:00:25;;;;;;;7.20;4.50;;;10.00;99.90;;;;;;5031954;28;20025;-80
2024/04/01 05:02:51;;;;;;;9.40;5.13;;;10.00;99.90;;;;;;5032492;28;20036;-81
2024/04/01 05:05:17;;;;;;;9.97;4.87;;;10.10;99.90;;;;;;5032991;28;20026;-80
2024/04/01 05:07:45;;;;;;;8.43;5.07;;;10.10;99.90;;;;;;5032895;28;20030;-80
2024/04/01 05:10:14;;;;;;;6.87;4.70;;;10.00;99.90;;;;;;5033131;28;20152;-81
2024/04/01 05:12:40;;;;;;;8.63;5.20;;;10.10;99.90;;;;;;5032836;28;20022;-81
2024/04/01 05:15:06;;;;;;;7.70;4.47;;;10.10;99.90;;;;;;5033085;28;20029;-80
2024/04/01 05:17:32;;;;;;;5.97;4.30;;;10.10;99.90;;;;;;5032861;28;20589;-80
2024/04/01 05:19:58;;;;;;;13.33;4.30;;;10.10;99.90;;;;;;5033284;28;20067;-80
2024/04/01 05:22:27;;;;;;;9.77;5.27;;;10.10;99.90;;;;;;5032618;28;20108;-80
2024/04/01 05:24:54;;;;;;;6.93;4.33;;;10.10;99.90;;;;;;5033030;28;20111;-81
2024/04/01 05:27:21;;;;;;;8.03;4.40;;;10.10;99.90;;;;;;5032738;28;20033;-80
2024/04/01 05:30:02;;;;;;;9.23;4.87;;;10.10;99.90;;;;;;5031919;28;20025;-81
2024/04/01 05:32:32;;;;;;;9.33;4.60;;;10.10;99.90;;;;;;5032221;28;20109;-80
2024/04/01 05:34:58;;;;;;;8.93;4.60;;;10.10;99.90;;;;;;5032731;28;20036;-81
2024/04/01 05:37:24;;;;;;;7.33;4.50;;;10.10;99.90;;;;;;5032880;28;20025;-81
2024/04/01 05:39:50;;;;;;;7.93;4.27;;;10.20;99.90;;;;;;5032703;28;20033;-80
2024/04/01 05:42:16;;;;;;;10.07;4.37;;;10.20;99.90;;;;;;5032507;28;20547;-80
2024/04/01 05:44:42;;;;;;;7.10;4.53;;;10.20;99.90;;;;;;5032794;28;20447;-81
2024/04/01 05:47:08;;;;;;;7.18;4.25;;;10.20;99.90;;;;;;5032628;28;20049;-80
2024/04/01 05:49:34;;;;;;;8.00;4.93;;;10.20;99.90;;;;;;5032769;28;20437;-80
2024/04/01 05:51:59;;;;;;;8.90;4.30;;;10.20;99.90;;;;;;5031386;28;20030;-80
2024/04/01 05:54:25;;;;;;;8.90;4.70;;;10.20;99.90;;;;;;5032523;28;20079;-81
2024/04/01 05:56:51;;;;;;;8.73;5.27;;;10.20;99.90;;;;;;5033680;28;20037;-81
2024/04/01 05:59:16;;;;;;;7.97;4.70;;;10.20;99.90;;;;;;5032905;28;20399;-81
2024/04/01 06:01:44;;;;;;;7.83;4.53;;;10.20;99.90;;;;;;5032605;28;20028;-80
2024/04/01 06:04:09;;;;;;;7.70;4.37;;;10.20;99.90;;;;;;5031106;28;20163;-80
2024/04/01 06:06:35;;;;;;;7.90;4.07;;;10.20;99.90;;;;;;5031230;28;20100;-80
2024/04/01 06:09:01;;;;;;;8.82;3.83;;;10.20;99.90;;;;;;5032477;28;20030;-81
2024/04/01 06:11:27;;;;;;;7.37;4.07;;;10.30;99.90;;;;;;5032034;28;20040;-81
2024/04/01 06:13:52;;;;;;;6.00;3.20;;;10.20;99.90;;;;;;5032577;28;20032;-81
2024/04/01 06:16:18;;;;;;;6.17;3.03;;;10.20;99.90;;;;;;5034954;28;20049;-81
2024/04/01 06:18:43;;;;;;;7.73;3.50;;;10.20;99.90;;;;;;5035690;28;20113;-80
2024/04/01 06:21:10;;;;;;;4.60;2.57;;;10.30;99.90;;;;;;5034938;28;20477;-81
2024/04/01 06:23:36;;;;;;;4.77;3.03;;;10.30;99.90;;;;;;5036022;28;20077;-81
2024/04/01 06:26:01;;;;;;;6.73;2.73;;;10.40;99.90;;;;;;5035965;28;20477;-81
2024/04/01 06:28:27;;;;;;;5.40;2.80;;;10.40;99.90;;;;;;5034359;28;20101;-81
2024/04/01 06:30:52;;;;;;;6.43;3.25;;;10.30;99.90;;;;;;5035375;28;20052;-81
2024/04/01 06:33:18;;;;;;;4.55;2.63;;;10.30;99.90;;;;;;5035501;28;20076;-81
2024/04/01 06:35:44;;;;;;;6.13;2.90;;;10.30;99.90;;;;;;5036119;28;20026;-80
2024/04/01 06:38:09;;;;;;;8.40;3.07;;;10.40;99.90;;;;;;5051105;28;20013;-81
2024/04/01 06:40:36;;;;;;;5.30;2.90;;;10.30;99.90;;;;;;5035607;28;20029;-81
2024/04/01 06:43:02;;;;;;;6.37;3.33;;;10.40;99.90;;;;;;5035156;28;20022;-81
2024/04/01 06:45:28;;;;;;;4.50;2.58;;;10.50;99.90;;;;;;5034172;28;20029;-81
2024/04/01 06:47:54;;;;;;;5.75;2.60;;;10.40;99.90;;;;;;5035471;28;20079;-80
2024/04/01 06:50:20;;;;;;;6.25;2.75;;;10.50;99.90;;;;;;5035633;28;20393;-80
2024/04/01 06:52:46;;;;;;;6.72;2.60;;;10.50;99.90;;;;;;5034124;28;20041;-80
2024/04/01 06:55:12;;;;;;;4.70;2.65;;;10.50;99.90;;;;;;5034341;28;20385;-81
2024/04/01 06:57:40;;;;;;;4.95;2.60;;;10.50;99.90;;;;;;5035189;28;20118;-81
2024/04/01 07:00:06;;;;;;;4.60;2.05;;;10.60;99.90;;;;;;5035541;28;20140;-81
2024/04/01 07:02:32;;;;;;;5.20;2.28;;;10.60;99.90;;;;;;5035489;28;20083;-80
2024/04/01 07:04:57;;;;;;;5.05;2.33;;;10.60;99.90;;;;;;5035677;28;20026;-80
2024/04/01 07:07:23;;;;;;;5.32;2.05;;;10.60;99.90;;;;;;5033583;28;20017;-80
2024/04/01 07:09:49;;;;;;;4.47;2.10;;;10.60;99.90;;;;;;5035275;28;20428;-80
2024/04/01 07:12:15;;;;;;;3.92;1.73;;;10.60;99.90;;;;;;5034843;28;20497;-80
2024/04/01 07:14:41;;;;;;;5.32;2.00;;;10.70;99.90;;;;;;5034038;28;20083;-80
2024/04/01 07:17:07;;;;;;;4.82;1.65;;;10.60;99.90;;;;;;5035077;28;20520;-82
2024/04/01 07:19:33;;;;;;;4.50;1.70;;;10.70;99.90;;;;;;5035132;28;20022;-81
2024/04/01 07:21:59;;;;;;;3.30;1.67;;;10.70;99.90;;;;;;5033589;28;20169;-80
2024/04/01 07:24:26;;;;;;;5.22;1.75;;;10.70;99.90;;;;;;5035584;28;20018;-81
2024/04/01 07:26:51;;;;;;;4.32;1.88;;;10.60;99.90;;;;;;5034464;28;20014;-81
2024/04/01 07:29:17;;;;;;;3.53;1.38;;;10.70;99.90;;;;;;5035184;28;20021;-81
2024/04/01 07:31:42;;;;;;;3.63;1.88;;;10.70;99.90;;;;;;5033265;28;20173;-81
2024/04/01 07:34:08;;;;;;;4.60;1.70;;;10.70;99.90;;;;;;5034879;28;20049;-81
2024/04/01 07:36:34;;;;;;;4.43;1.65;;;10.70;99.90;;;;;;5034386;28;20030;-80
2024/04/01 07:39:00;;;;;;;3.53;1.60;;;10.70;99.90;;;;;;5049597;28;20018;-81
2024/04/01 07:41:26;;;;;;;3.22;1.67;;;10.80;99.90;;;;;;5032043;28;20087;-81
2024/04/01 07:43:52;;;;;;;4.80;2.00;;;10.70;99.90;;;;;;5033835;28;20029;-81
2024/04/01 07:46:17;;;;;;;4.57;1.83;;;10.70;99.90;;;;;;5032621;28;20026;-80
2024/04/01 07:48:43;;;;;;;5.22;1.90;;;10.60;99.90;;;;;;5032442;28;20043;-81
2024/04/01 07:51:08;;;;;;;5.53;1.95;;;10.70;99.90;;;;;;5032776;28;20106;-82
2024/04/01 07:53:34;;;;;;;5.00;1.80;;;10.80;99.90;;;;;;5034504;28;20022;-80
2024/04/01 07:56:00;;;;;;;5.38;1.80;;;10.90;99.90;;;;;;5032620;28;20556;-82
2024/04/01 07:58:26;;;;;;;5.72;2.28;;;10.70;99.90;;;;;;5034470;28;20022;-81
2024/04/01 08:00:54;;;;;;;4.32;2.03;;;10.80;99.90;;;;;;5033247;28;20044;-82
2024/04/01 08:03:19;;;;;;;6.72;1.92;;;10.80;99.90;;;;;;5032651;28;20025;-81
2024/04/01 08:05:45;;;;;;;4.80;2.30;;;10.80;99.90;;;;;;5032733;28;20083;-80
2024/04/01 08:08:11;;;;;;;4.68;1.90;;;10.80;99.90;;;;;;5033799;28;20092;-80
2024/04/01 08:10:36;;;;;;;4.38;2.20;;;10.80;99.90;;;;;;5033539;28;20449;-80
2024/04/01 08:13:02;;;;;;;5.13;2.60;;;10.90;99.90;;;;;;5032972;28;20105;-81
2024/04/01 08:15:28;;;;;;;5.22;2.80;;;10.80;99.90;;;;;;5033472;28;20465;-81
2024/04/01 08:17:53;;;;;;;5.65;2.55;;;10.90;99.90;;;;;;5033934;28;20036;-82
2024/04/01 08:20:19;;;;;;;5.90;2.88;;;10.90;99.90;;;;;;5033688;28;20086;-80
2024/04/01 08:22:44;;;;;;;4.32;2.22;;;10.90;99.90;;;;;;5033714;28;20029;-82
2024/04/01 08:25:10;;;;;;;5.15;2.30;;;10.90;99.90;;;;;;5033538;28;20025;-82
2024/04/01 08:27:36;;;;;;;5.75;3.38;;;10.90;99.90;;;;;;5034098;28;20017;-82
2024/04/01 08:30:02;;;;;;;4.90;2.88;;;10.90;99.90;;;;;;5034053;28;20394;-81
2024/04/01 08:32:28;;;;;;;5.32;3.25;;;11.00;99.90;;;;;;5033475;28;20056;-81
2024/04/01 08:34:53;;;;;;;5.93;3.58;;;11.00;99.90;;;;;;5032977;28;20022;-81
2024/04/01 08:37:19;;;;;;;6.35;3.53;;;10.90;99.90;;;;;;5032187;28;20087;-81
2024/04/01 08:39:45;;;;;;;5.80;3.03;;;10.90;99.90;;;;;;5030975;28;20037;-81
2024/04/01 08:42:14;;;;;;;6.25;3.17;;;10.90;99.90;;;;;;5032952;28;20072;-82
2024/04/01 08:44:41;;;;;;;7.25;3.83;;;10.90;99.90;;;;;;5032424;28;20021;-82
2024/04/01 08:47:08;;;;;;;6.85;3.90;;;10.90;99.90;;;;;;5031475;28;20014;-81
2024/04/01 08:49:50;;;;;;;6.82;3.33;;;10.90;99.90;;;;;;5031345;28;20041;-82
2024/04/01 08:52:22;;;;;;;6.90;4.07;;;10.90;99.90;;;;;;5031777;28;20490;-82
2024/04/01 08:54:49;;;;;;;7.10;4.07;;;10.90;99.90;;;;;;5031152;28;20022;-83
2024/04/01 08:57:14;;;;;;;7.90;4.35;;;10.90;99.90;;;;;;5033342;28;20076;-82
2024/04/01 08:59:42;;;;;;;8.25;5.30;;;10.90;99.90;;;;;;5031752;28;20013;-81
2024/04/01 09:02:08;;;;;;;9.23;5.35;;;10.90;99.90;;;;;;5032455;28;20026;-82
2024/04/01 09:04:34;;;;;;;8.30;5.57;;;11.00;99.90;;;;;;5032439;28;20022;-81
2024/04/01 09:06:59;;;;;;;10.27;4.95;;;11.00;99.90;;;;;;5032666;28;20097;-83
2024/04/01 09:09:26;;;;;;;6.50;4.43;;;11.10;99.90;;;;;;5029419;28;20025;-82
2024/04/01 09:11:52;;;;;;;8.38;5.57;;;11.10;99.90;;;;;;5032759;28;20029;-82
2024/04/01 09:14:18;;;;;;;10.82;6.22;;;11.10;99.90;;;;;;5032965;28;20022;-82
2024/04/01 09:16:44;;;;;;;9.45;5.13;;;11.10;99.90;;;;;;5032493;28;20032;-83
2024/04/01 09:19:11;;;;;;;10.32;5.95;;;11.10;99.90;;;;;;5031317;28;20045;-82
2024/04/01 09:21:38;;;;;;;10.45;6.00;;;11.20;99.90;;;;;;5032503;28;20350;-83
2024/04/01 09:24:04;;;;;;;7.03;5.15;;;11.10;99.90;;;;;;5031879;28;20396;-84
2024/04/01 09:26:30;;;;;;;10.18;5.47;;;11.10;99.90;;;;;;5032240;28;20022;-82
2024/04/01 09:28:56;;;;;;;6.72;4.35;;;11.10;99.90;;;;;;5032112;28;20022;-82
2024/04/01 09:31:23;;;;;;;7.35;4.13;;;11.20;99.90;;;;;;5031876;28;20458;-82
2024/04/01 09:33:49;;;;;;;6.72;4.00;;;11.20;99.90;;;;;;5030790;28;20014;-83
2024/04/01 09:36:16;;;;;;;6.85;4.13;;;11.30;99.90;;;;;;5033310;28;20377;-81
2024/04/01 09:38:42;;;;;;;5.38;3.95;;;11.40;99.90;;;;;;5032922;28;20037;-82
2024/04/01 09:41:08;;;;;;;6.03;3.75;;;11.40;99.90;;;;;;5033056;28;20021;-83
2024/04/01 09:43:33;;;;;;;8.82;3.75;;;11.50;99.90;;;;;;5032688;28;20079;-84
2024/04/01 09:46:00;;;;;;;8.15;3.75;;;11.40;99.90;;;;;;5030862;28;20028;-83
2024/04/01 09:48:27;;;;;;;6.05;3.90;;;11.50;99.90;;;;;;5032019;28;20087;-83
2024/04/01 09:50:56;;;;;;;6.05;3.65;;;11.50;99.90;;;;;;5034704;28;20108;-83
2024/04/01 09:53:23;;;;;;;5.78;3.58;;;11.60;99.90;;;;;;5034462;28;20093;-83
2024/04/01 09:56:01;;;;;;;6.53;3.22;;;11.60;99.90;;;;;;5035912;28;20044;-82
2024/04/01 09:59:03;;;;;;;5.82;3.45;;;11.70;99.90;;;;;;5035936;28;20101;-83
2024/04/01 10:02:02;;;;;;;6.30;3.08;;;11.70;99.90;;;;;;5033401;28;20108;-83
2024/04/01 10:05:01;;;;;;;5.22;3.67;;;11.80;99.90;;;;;;5007271;28;20048;-83
2024/04/01 10:07:51;;;;;;;6.50;3.38;;;11.80;99.90;;;;;;5036143;28;20052;-83
2024/04/01 10:10:29;;;;;;;7.43;3.75;;;11.80;99.90;;;;;;5034784;28;20032;-82
2024/04/01 10:13:21;;;;;;;5.40;3.83;;;11.80;99.90;;;;;;5035989;28;20046;-82
2024/04/01 10:16:12;;;;;;;6.03;3.78;;;11.80;99.90;;;;;;5036399;28;20047;-83
2024/04/01 10:19:39;;;;;;;5.70;3.92;;;11.80;99.90;;;;;;5036400;28;20028;-84
2024/04/01 10:22:25;;;;;;;5.90;3.90;;;11.80;99.90;;;;;;4994863;28;20085;-82
2024/04/01 10:25:22;;;;;;;7.45;4.03;;;11.80;99.90;;;;;;5033836;28;20030;-83
2024/04/01 10:27:56;;;;;;;5.68;3.40;;;11.70;99.90;;;;;;5035239;28;20385;-83
2024/04/01 10:30:43;;;;;;;6.07;3.10;;;11.70;99.90;;;;;;5034859;28;20018;-81
2024/04/01 10:33:36;;;;;;;5.03;3.08;;;11.70;99.90;;;;;;5035467;28;20083;-81
2024/04/01 10:36:25;;;;;;;7.40;3.28;;;11.70;99.90;;;;;;5034777;28;20032;-81
2024/04/01 10:39:06;;;;;;;5.13;2.63;;;11.70;99.90;;;;;;5034424;28;20120;-82
2024/04/01 10:42:08;;;;;;;4.57;2.90;;;11.80;99.90;;;;;;5034050;28;20381;-79
2024/04/01 10:45:38;;;;;;;4.40;3.00;;;11.90;99.90;;;;;;5034512;28;20036;-81
2024/04/01 10:48:14;;;;;;;5.97;3.15;;;11.90;99.90;;;;;;4993769;28;20105;-82
2024/04/01 10:51:01;;;;;;;5.75;3.33;;;11.90;99.90;;;;;;5010604;28;20026;-81
2024/04/01 10:53:51;;;;;;;7.75;3.42;;;12.00;99.90;;;;;;5031430;28;20048;-82
2024/04/01 10:56:16;;;;;;;8.60;3.70;;;12.00;99.90;;;;;;5031766;28;20470;-82
2024/04/01 10:59:07;;;;;;;6.70;3.70;;;12.10;99.90;;;;;;5035135;28;20096;-81
2024/04/01 11:01:57;;;;;;;8.88;5.50;;;12.10;99.90;;;;;;5034378;28;20060;-79
2024/04/01 11:04:55;;;;;;;8.57;4.68;;;12.10;99.90;;;;;;5033256;28;20047;-81
2024/04/01 11:07:45;;;;;;;9.45;5.03;;;12.10;99.90;;;;;;5035471;28;20036;-81
2024/04/01 11:10:21;;;;;;;7.63;5.25;;;12.00;99.90;;;;;;5035077;28;20397;-80
2024/04/01 11:12:55;;;;;;;9.50;6.05;;;12.10;99.90;;;;;;5034881;28;20159;-81
2024/04/01 11:15:21;;;;;;;8.45;6.00;;;12.00;99.90;;;;;;5035201;28;20362;-81
2024/04/01 11:17:51;;;;;;;13.98;7.38;;;12.00;99.90;;;;;;5035096;28;20036;-80
2024/04/01 11:20:40;;;;;;;8.98;5.82;;;11.90;99.90;;;;;;5034874;28;20017;-80
2024/04/01 11:23:24;;;;;;;10.85;6.85;;;12.00;99.90;;;;;;5034900;28;20030;-79
2024/04/01 11:26:11;;;;;;;8.75;5.85;;;11.90;99.90;;;;;;5035149;28;20153;-81
2024/04/01 11:28:55;;;;;;;11.60;6.85;;;11.90;99.90;;;;;;5033694;28;20182;-80
2024/04/01 11:31:24;;;;;;;8.48;5.50;;;11.90;99.90;;;;;;5033072;28;20034;-81
2024/04/01 11:33:57;;;;;;;8.43;5.18;;;12.00;99.90;;;;;;5034277;28;20550;-77
2024/04/01 11:36:51;;;;;;;9.90;4.72;;;12.00;99.90;;;;;;5033997;28;20021;-77
2024/04/01 11:39:18;;;;;;;7.07;4.07;;;12.00;99.90;;;;;;5014447;28;20066;-79
2024/04/01 11:41:49;;;;;;;13.15;4.43;;;12.00;99.90;;;;;;5020989;28;20493;-80
2024/04/01 11:44:20;;;;;;;9.27;3.80;;;12.10;99.90;;;;;;5033999;28;20041;-78
2024/04/01 11:46:48;;;;;;;9.02;3.55;;;12.20;99.90;;;;;;5032023;28;20123;-78
2024/04/01 11:49:14;;;;;;;7.32;4.32;;;12.20;99.90;;;;;;5033542;28;20048;-78
2024/04/01 11:51:39;;;;;;;6.65;3.88;;;12.30;99.90;;;;;;5034684;28;20025;-78
2024/04/01 11:54:05;;;;;;;9.52;3.30;;;12.40;99.90;;;;;;5035360;28;20032;-79
2024/04/01 11:56:41;;;;;;;8.40;2.92;;;12.40;99.90;;;;;;5034105;28;20026;-80
2024/04/01 11:59:10;;;;;;;6.40;2.83;;;12.50;99.90;;;;;;5033996;28;20026;-79
2024/04/01 12:01:39;;;;;;;9.35;2.83;;;12.60;99.90;;;;;;5030861;28;20025;-81
2024/04/01 12:04:05;;;;;;;6.97;2.47;;;12.60;99.90;;;;;;5014895;28;20100;-81
2024/04/01 12:06:33;;;;;;;6.57;2.17;;;12.70;99.90;;;;;;5026557;28;20022;-79
2024/04/01 12:09:00;;;;;;;5.88;1.80;;;12.80;99.90;;;;;;5032915;28;20026;-80
2024/04/01 12:11:32;;;;;;;6.40;1.83;;;12.90;99.90;;;;;;5033265;28;20064;-81
2024/04/01 12:13:58;;;;;;;4.60;1.60;;;12.90;99.90;;;;;;5032392;28;20025;-81
2024/04/01 12:16:24;;;;;;;9.07;1.75;;;13.00;99.90;;;;;;5032337;28;20024;-80
2024/04/01 12:18:51;;;;;;;4.07;1.20;;;13.20;99.90;;;;;;5033882;28;20164;-81
2024/04/01 12:21:21;;;;;;;5.28;1.40;;;13.30;99.90;;;;;;5032455;28;20022;-84
2024/04/01 12:23:51;;;;;;;7.80;1.20;;;13.40;98.90;;;;;;5032486;28;20050;-82
2024/04/01 12:26:19;;;;;;;7.80;1.20;;;13.50;98.30;;;;;;5033387;28;20025;-80
2024/04/01 12:28:46;;;;;;;4.00;1.13;;;13.40;97.60;;;;;;5033565;28;20033;-80
2024/04/01 12:31:14;;;;;;;8.15;1.00;;;13.50;97.70;;;;;;5032861;28;20039;-82
2024/04/01 12:33:45;;;;;;;4.10;1.10;;;13.50;96.70;;;;;;5032278;28;20104;-80
2024/04/01 12:36:13;;;;;;;3.17;0.90;;;13.70;96.10;;;;;;5033140;28;20029;-79
2024/04/01 12:38:41;;;;;;;4.65;1.00;;;13.70;95.70;;;;;;5033180;28;20022;-81
2024/04/01 12:41:08;;;;;;;4.32;1.10;;;13.90;95.80;;;;;;5033269;28;20441;-81
2024/04/01 12:43:35;;;;;;;7.70;1.25;;;14.00;95.10;;;;;;5032092;28;20030;-81
2024/04/01 12:46:01;;;;;;;6.13;1.10;;;14.30;95.30;;;;;;5033291;28;20034;-81
2024/04/01 12:48:27;;;;;;;4.47;1.10;;;14.90;94.90;;;;;;5033282;28;20049;-81
2024/04/01 12:51:02;;;;;;;4.13;0.98;;;15.40;94.30;;;;;;5031812;28;20358;-79
2024/04/01 12:53:28;;;;;;;5.38;1.13;;;15.90;94.00;;;;;;5032771;28;20037;-86